sensor_id;sensor_type;location;lat;lon;timestamp;pressure;altitude;pressure_sealevel;temperature;humidity
54329;BME280;40710;51.120;13.136;2022-08-30T00:00:31;99867.63;;;18.76;59.82
54329;BME280;40710;51.120;13.136;2022-08-30T00:03:14;99860.94;;;18.70;60.23
54329;BME280;40710;51.120;13.136;2022-08-30T00:05:40;99870.16;;;18.78;59.70
54329;BME280;40710;51.120;13.136;2022-08-30T00:08:05;99860.59;;;18.75;59.75
54329;BME280;40710;51.120;13.136;2022-08-30T00:10:30;99862.16;;;18.44;60.49
54329;BME280;40710;51.120;13.136;2022-08-30T00:12:55;99869.38;;;18.19;61.55
54329;BME280;40710;51.120;13.136;2022-08-30T00:15:21;99871.59;;;18.37;61.12
54329;BME280;40710;51.120;13.136;2022-08-30T00:17:46;99875.47;;;18.44;60.75
54329;BME280;40710;51.120;13.136;2022-08-30T00:20:13;99881.84;;;18.19;61.29
54329;BME280;40710;51.120;13.136;2022-08-30T00:22:38;99884.53;;;18.41;60.92
54329;BME280;40710;51.120;13.136;2022-08-30T00:25:03;99888.03;;;18.30;61.28
54329;BME280;40710;51.120;13.136;2022-08-30T00:27:28;99886.13;;;18.55;60.43
54329;BME280;40710;51.120;13.136;2022-08-30T00:29:53;99880.91;;;18.65;59.96
54329;BME280;40710;51.120;13.136;2022-08-30T00:32:18;99881.28;;;18.38;60.52
54329;BME280;40710;51.120;13.136;2022-08-30T00:34:44;99878.97;;;18.33;60.70
54329;BME280;40710;51.120;13.136;2022-08-30T00:37:08;99885.63;;;18.39;60.30
54329;BME280;40710;51.120;13.136;2022-08-30T00:39:33;99886.09;;;18.32;60.20
54329;BME280;40710;51.120;13.136;2022-08-30T00:41:57;99888.59;;;18.23;60.70
54329;BME280;40710;51.120;13.136;2022-08-30T00:44:22;99884.38;;;18.20;60.47
54329;BME280;40710;51.120;13.136;2022-08-30T00:46:47;99889.53;;;17.99;61.08
54329;BME280;40710;51.120;13.136;2022-08-30T00:49:12;99897.41;;;18.01;61.07
54329;BME280;40710;51.120;13.136;2022-08-30T00:51:37;99902.09;;;17.97;61.18
54329;BME280;40710;51.120;13.136;2022-08-30T00:54:02;99899.44;;;17.73;61.97
54329;BME280;40710;51.120;13.136;2022-08-30T00:56:27;99904.13;;;17.69;62.08
54329;BME280;40710;51.120;13.136;2022-08-30T00:58:54;99901.97;;;17.74;61.91
54329;BME280;40710;51.120;13.136;2022-08-30T01:01:20;99905.97;;;17.56;62.28
54329;BME280;40710;51.120;13.136;2022-08-30T01:03:45;99898.59;;;17.48;62.49
54329;BME280;40710;51.120;13.136;2022-08-30T01:06:11;99895.56;;;17.77;61.77
54329;BME280;40710;51.120;13.136;2022-08-30T01:08:35;99886.94;;;17.86;61.66
54329;BME280;40710;51.120;13.136;2022-08-30T01:11:00;99895.97;;;17.84;61.80
54329;BME280;40710;51.120;13.136;2022-08-30T01:13:27;99892.25;;;17.62;62.49
54329;BME280;40710;51.120;13.136;2022-08-30T01:15:52;99891.78;;;17.68;62.21
54329;BME280;40710;51.120;13.136;2022-08-30T01:18:17;99892.06;;;17.52;62.41
54329;BME280;40710;51.120;13.136;2022-08-30T01:20:47;99892.81;;;17.54;62.38
54329;BME280;40710;51.120;13.136;2022-08-30T01:23:15;99879.22;;;17.70;61.55
54329;BME280;40710;51.120;13.136;2022-08-30T01:25:44;99882.00;;;17.69;61.81
54329;BME280;40710;51.120;13.136;2022-08-30T01:28:13;99888.91;;;17.71;61.87
54329;BME280;40710;51.120;13.136;2022-08-30T01:30:39;99891.44;;;17.73;61.53
54329;BME280;40710;51.120;13.136;2022-08-30T01:33:06;99889.94;;;17.57;62.04
54329;BME280;40710;51.120;13.136;2022-08-30T01:35:37;99889.19;;;17.80;61.31
54329;BME280;40710;51.120;13.136;2022-08-30T01:38:06;99897.50;;;17.14;63.48
54329;BME280;40710;51.120;13.136;2022-08-30T01:40:31;99898.69;;;17.47;62.30
54329;BME280;40710;51.120;13.136;2022-08-30T01:42:55;99894.34;;;17.70;61.64
54329;BME280;40710;51.120;13.136;2022-08-30T01:45:19;99895.84;;;17.61;61.62
54329;BME280;40710;51.120;13.136;2022-08-30T01:47:44;99887.81;;;17.74;61.51
54329;BME280;40710;51.120;13.136;2022-08-30T01:50:09;99890.97;;;17.79;61.11
54329;BME280;40710;51.120;13.136;2022-08-30T01:52:34;99879.34;;;17.93;60.88
54329;BME280;40710;51.120;13.136;2022-08-30T01:54:58;99884.50;;;17.83;60.96
54329;BME280;40710;51.120;13.136;2022-08-30T01:57:23;99883.13;;;18.02;60.24
54329;BME280;40710;51.120;13.136;2022-08-30T01:59:49;99873.28;;;17.91;60.36
54329;BME280;40710;51.120;13.136;2022-08-30T02:02:20;99879.63;;;17.77;60.71
54329;BME280;40710;51.120;13.136;2022-08-30T02:04:45;99873.47;;;18.01;60.07
54329;BME280;40710;51.120;13.136;2022-08-30T02:07:10;99885.75;;;17.90;60.30
54329;BME280;40710;51.120;13.136;2022-08-30T02:09:35;99894.72;;;17.28;61.55
54329;BME280;40710;51.120;13.136;2022-08-30T02:12:00;99900.91;;;17.16;61.88
54329;BME280;40710;51.120;13.136;2022-08-30T02:14:25;99895.44;;;16.93;62.43
54329;BME280;40710;51.120;13.136;2022-08-30T02:16:50;99904.59;;;16.89;62.98
54329;BME280;40710;51.120;13.136;2022-08-30T02:19:15;99901.59;;;16.68;63.38
54329;BME280;40710;51.120;13.136;2022-08-30T02:21:39;99898.22;;;16.66;63.65
54329;BME280;40710;51.120;13.136;2022-08-30T02:24:04;99896.50;;;16.91;63.30
54329;BME280;40710;51.120;13.136;2022-08-30T02:26:29;99889.66;;;17.12;62.43
54329;BME280;40710;51.120;13.136;2022-08-30T02:28:53;99889.44;;;17.15;62.18
54329;BME280;40710;51.120;13.136;2022-08-30T02:31:18;99885.22;;;17.13;62.21
54329;BME280;40710;51.120;13.136;2022-08-30T02:33:43;99885.75;;;17.05;62.35
54329;BME280;40710;51.120;13.136;2022-08-30T02:36:07;99889.94;;;16.84;63.34
54329;BME280;40710;51.120;13.136;2022-08-30T02:38:32;99889.38;;;16.78;63.47
54329;BME280;40710;51.120;13.136;2022-08-30T02:40:57;99893.75;;;16.79;63.25
54329;BME280;40710;51.120;13.136;2022-08-30T02:43:21;99885.78;;;16.92;62.90
54329;BME280;40710;51.120;13.136;2022-08-30T02:45:46;99886.31;;;16.97;62.51
54329;BME280;40710;51.120;13.136;2022-08-30T02:48:10;99887.56;;;16.79;62.72
54329;BME280;40710;51.120;13.136;2022-08-30T02:50:39;99887.56;;;16.79;63.10
54329;BME280;40710;51.120;13.136;2022-08-30T02:53:04;99888.34;;;16.68;63.14
54329;BME280;40710;51.120;13.136;2022-08-30T02:55:28;99877.81;;;16.92;62.14
54329;BME280;40710;51.120;13.136;2022-08-30T02:57:53;99880.47;;;16.92;62.38
54329;BME280;40710;51.120;13.136;2022-08-30T03:00:19;99879.13;;;16.87;62.42
54329;BME280;40710;51.120;13.136;2022-08-30T03:02:43;99875.91;;;16.81;62.71
54329;BME280;40710;51.120;13.136;2022-08-30T03:05:09;99873.78;;;16.99;62.03
54329;BME280;40710;51.120;13.136;2022-08-30T03:07:36;99878.25;;;16.48;63.24
54329;BME280;40710;51.120;13.136;2022-08-30T03:10:00;99880.50;;;16.54;63.54
54329;BME280;40710;51.120;13.136;2022-08-30T03:12:25;99875.41;;;16.51;63.45
54329;BME280;40710;51.120;13.136;2022-08-30T03:14:50;99879.03;;;16.50;63.57
54329;BME280;40710;51.120;13.136;2022-08-30T03:17:14;99875.06;;;16.68;62.99
54329;BME280;40710;51.120;13.136;2022-08-30T03:19:39;99864.91;;;16.62;62.98
54329;BME280;40710;51.120;13.136;2022-08-30T03:22:05;99862.13;;;16.25;64.00
54329;BME280;40710;51.120;13.136;2022-08-30T03:24:31;99863.50;;;16.56;63.31
54329;BME280;40710;51.120;13.136;2022-08-30T03:26:56;99869.03;;;16.66;63.18
54329;BME280;40710;51.120;13.136;2022-08-30T03:29:20;99858.63;;;16.63;62.53
54329;BME280;40710;51.120;13.136;2022-08-30T03:31:46;99864.03;;;16.23;63.84
54329;BME280;40710;51.120;13.136;2022-08-30T03:34:10;99862.97;;;16.64;62.87
54329;BME280;40710;51.120;13.136;2022-08-30T03:36:35;99867.63;;;16.48;63.01
54329;BME280;40710;51.120;13.136;2022-08-30T03:39:01;99869.34;;;16.61;62.79
54329;BME280;40710;51.120;13.136;2022-08-30T03:41:25;99863.50;;;16.56;63.00
54329;BME280;40710;51.120;13.136;2022-08-30T03:43:49;99858.28;;;16.80;62.11
54329;BME280;40710;51.120;13.136;2022-08-30T03:46:14;99861.41;;;16.49;62.83
54329;BME280;40710;51.120;13.136;2022-08-30T03:48:39;99865.38;;;16.67;62.76
54329;BME280;40710;51.120;13.136;2022-08-30T03:51:04;99858.47;;;17.03;61.24
54329;BME280;40710;51.120;13.136;2022-08-30T03:53:28;99859.41;;;17.02;61.39
54329;BME280;40710;51.120;13.136;2022-08-30T03:55:53;99855.75;;;17.16;60.79
54329;BME280;40710;51.120;13.136;2022-08-30T03:58:17;99857.91;;;17.11;61.08
54329;BME280;40710;51.120;13.136;2022-08-30T04:00:42;99868.81;;;16.69;62.03
54329;BME280;40710;51.120;13.136;2022-08-30T04:03:06;99872.41;;;16.68;62.45
54329;BME280;40710;51.120;13.136;2022-08-30T04:05:30;99880.38;;;16.42;63.07
54329;BME280;40710;51.120;13.136;2022-08-30T04:07:55;99885.47;;;16.45;63.00
54329;BME280;40710;51.120;13.136;2022-08-30T04:10:20;99882.94;;;16.31;63.60
54329;BME280;40710;51.120;13.136;2022-08-30T04:12:44;99882.50;;;16.37;63.43
54329;BME280;40710;51.120;13.136;2022-08-30T04:15:09;99880.81;;;16.62;62.68
54329;BME280;40710;51.120;13.136;2022-08-30T04:17:34;99883.13;;;16.67;62.65
54329;BME280;40710;51.120;13.136;2022-08-30T04:19:59;99879.63;;;16.92;61.96
54329;BME280;40710;51.120;13.136;2022-08-30T04:22:23;99887.59;;;16.92;62.02
54329;BME280;40710;51.120;13.136;2022-08-30T04:24:48;99887.38;;;16.95;61.50
54329;BME280;40710;51.120;13.136;2022-08-30T04:27:12;99890.78;;;16.84;62.09
54329;BME280;40710;51.120;13.136;2022-08-30T04:29:37;99877.34;;;17.11;61.48
54329;BME280;40710;51.120;13.136;2022-08-30T04:32:01;99898.63;;;16.60;62.78
54329;BME280;40710;51.120;13.136;2022-08-30T04:34:26;99901.72;;;16.79;62.78
54329;BME280;40710;51.120;13.136;2022-08-30T04:36:50;99886.53;;;16.94;62.00
54329;BME280;40710;51.120;13.136;2022-08-30T04:39:17;99893.28;;;17.11;61.83
54329;BME280;40710;51.120;13.136;2022-08-30T04:41:41;99896.97;;;17.22;61.11
54329;BME280;40710;51.120;13.136;2022-08-30T04:44:06;99894.69;;;17.41;60.60
54329;BME280;40710;51.120;13.136;2022-08-30T04:46:30;99903.31;;;16.69;62.01
54329;BME280;40710;51.120;13.136;2022-08-30T04:48:55;99911.34;;;16.55;62.62
54329;BME280;40710;51.120;13.136;2022-08-30T04:51:19;99916.47;;;16.58;62.78
54329;BME280;40710;51.120;13.136;2022-08-30T04:53:44;99911.19;;;16.84;61.57
54329;BME280;40710;51.120;13.136;2022-08-30T04:56:15;99914.13;;;16.66;61.80
54329;BME280;40710;51.120;13.136;2022-08-30T04:58:40;99919.13;;;16.58;62.71
54329;BME280;40710;51.120;13.136;2022-08-30T05:01:04;99918.38;;;16.69;62.50
54329;BME280;40710;51.120;13.136;2022-08-30T05:03:34;99924.00;;;16.64;62.80
54329;BME280;40710;51.120;13.136;2022-08-30T05:05:58;99922.63;;;16.71;63.26
54329;BME280;40710;51.120;13.136;2022-08-30T05:08:23;99926.03;;;16.86;62.83
54329;BME280;40710;51.120;13.136;2022-08-30T05:10:49;99918.59;;;16.78;62.72
54329;BME280;40710;51.120;13.136;2022-08-30T05:13:16;99931.66;;;16.81;62.67
54329;BME280;40710;51.120;13.136;2022-08-30T05:15:41;99928.78;;;16.85;62.38
54329;BME280;40710;51.120;13.136;2022-08-30T05:18:07;99926.75;;;16.88;62.41
54329;BME280;40710;51.120;13.136;2022-08-30T05:20:32;99926.66;;;16.90;62.47
54329;BME280;40710;51.120;13.136;2022-08-30T05:22:56;99933.38;;;16.95;62.36
54329;BME280;40710;51.120;13.136;2022-08-30T05:25:23;99938.44;;;17.48;61.52
54329;BME280;40710;51.120;13.136;2022-08-30T05:27:48;99941.75;;;16.89;62.27
54329;BME280;40710;51.120;13.136;2022-08-30T05:30:14;99940.47;;;16.95;62.10
54329;BME280;40710;51.120;13.136;2022-08-30T05:32:39;99943.22;;;16.93;62.30
54329;BME280;40710;51.120;13.136;2022-08-30T05:35:04;99941.09;;;16.98;62.07
54329;BME280;40710;51.120;13.136;2022-08-30T05:37:29;99947.91;;;16.90;62.36
54329;BME280;40710;51.120;13.136;2022-08-30T05:39:54;99946.84;;;16.92;62.41
54329;BME280;40710;51.120;13.136;2022-08-30T05:42:19;99946.31;;;17.00;62.20
54329;BME280;40710;51.120;13.136;2022-08-30T05:44:43;99948.59;;;17.17;61.95
54329;BME280;40710;51.120;13.136;2022-08-30T05:47:08;99941.00;;;17.37;61.58
54329;BME280;40710;51.120;13.136;2022-08-30T05:49:32;99930.00;;;18.49;59.18
54329;BME280;40710;51.120;13.136;2022-08-30T05:51:57;99942.69;;;17.75;60.27
54329;BME280;40710;51.120;13.136;2022-08-30T05:54:21;99946.91;;;17.77;60.62
54329;BME280;40710;51.120;13.136;2022-08-30T05:56:46;99942.41;;;18.15;59.56
54329;BME280;40710;51.120;13.136;2022-08-30T05:59:11;99947.28;;;17.73;60.97
54329;BME280;40710;51.120;13.136;2022-08-30T06:01:41;99935.53;;;17.88;60.89
54329;BME280;40710;51.120;13.136;2022-08-30T06:04:07;99934.03;;;18.08;60.40
54329;BME280;40710;51.120;13.136;2022-08-30T06:06:34;99912.63;;;18.57;58.37
54329;BME280;40710;51.120;13.136;2022-08-30T06:08:59;99929.50;;;18.22;60.39
54329;BME280;40710;51.120;13.136;2022-08-30T06:11:25;99923.97;;;18.36;60.34
54329;BME280;40710;51.120;13.136;2022-08-30T06:13:50;99921.81;;;18.52;60.35
54329;BME280;40710;51.120;13.136;2022-08-30T06:16:19;99925.34;;;18.64;60.21
54329;BME280;40710;51.120;13.136;2022-08-30T06:18:44;99918.78;;;18.68;59.52
54329;BME280;40710;51.120;13.136;2022-08-30T06:21:15;99911.41;;;18.72;59.48
54329;BME280;40710;51.120;13.136;2022-08-30T06:23:40;99912.31;;;18.84;59.56
54329;BME280;40710;51.120;13.136;2022-08-30T06:26:05;99916.19;;;19.02;59.23
54329;BME280;40710;51.120;13.136;2022-08-30T06:28:30;99907.56;;;19.10;59.12
54329;BME280;40710;51.120;13.136;2022-08-30T06:30:55;99908.88;;;19.27;58.94
54329;BME280;40710;51.120;13.136;2022-08-30T06:33:19;99914.53;;;19.45;58.91
54329;BME280;40710;51.120;13.136;2022-08-30T06:35:43;99917.56;;;19.52;58.67
54329;BME280;40710;51.120;13.136;2022-08-30T06:38:08;99921.19;;;19.51;58.64
54329;BME280;40710;51.120;13.136;2022-08-30T06:40:32;99924.53;;;19.64;58.89
54329;BME280;40710;51.120;13.136;2022-08-30T06:42:57;99923.31;;;19.79;58.42
54329;BME280;40710;51.120;13.136;2022-08-30T06:45:21;99919.94;;;19.98;57.78
54329;BME280;40710;51.120;13.136;2022-08-30T06:47:46;99922.63;;;20.19;57.77
54329;BME280;40710;51.120;13.136;2022-08-30T06:50:12;99908.44;;;20.40;57.60
54329;BME280;40710;51.120;13.136;2022-08-30T06:52:38;99901.66;;;20.57;57.16
54329;BME280;40710;51.120;13.136;2022-08-30T06:55:03;99896.97;;;20.70;57.03
54329;BME280;40710;51.120;13.136;2022-08-30T06:57:28;99893.97;;;20.94;57.02
54329;BME280;40710;51.120;13.136;2022-08-30T06:59:56;99897.56;;;21.14;56.22
54329;BME280;40710;51.120;13.136;2022-08-30T07:02:20;99886.03;;;21.33;55.78
54329;BME280;40710;51.120;13.136;2022-08-30T07:04:44;99906.41;;;21.65;56.19
54329;BME280;40710;51.120;13.136;2022-08-30T07:07:09;99899.09;;;21.67;55.58
54329;BME280;40710;51.120;13.136;2022-08-30T07:09:34;99893.72;;;21.77;55.54
54329;BME280;40710;51.120;13.136;2022-08-30T07:12:01;99899.38;;;21.84;55.45
54329;BME280;40710;51.120;13.136;2022-08-30T07:14:26;99904.56;;;22.05;55.17
54329;BME280;40710;51.120;13.136;2022-08-30T07:16:50;99903.88;;;22.32;54.54
54329;BME280;40710;51.120;13.136;2022-08-30T07:19:15;99898.91;;;22.84;53.32
54329;BME280;40710;51.120;13.136;2022-08-30T07:21:41;99895.88;;;23.07;52.11
54329;BME280;40710;51.120;13.136;2022-08-30T07:24:10;99891.63;;;23.32;51.73
54329;BME280;40710;51.120;13.136;2022-08-30T07:26:38;99891.06;;;23.74;50.43
54329;BME280;40710;51.120;13.136;2022-08-30T07:29:03;99870.44;;;24.19;48.83
54329;BME280;40710;51.120;13.136;2022-08-30T07:31:28;99873.66;;;24.49;48.35
54329;BME280;40710;51.120;13.136;2022-08-30T07:33:53;99878.88;;;24.68;47.81
54329;BME280;40710;51.120;13.136;2022-08-30T07:36:17;99874.28;;;24.61;49.27
54329;BME280;40710;51.120;13.136;2022-08-30T07:38:45;99869.97;;;25.19;47.41
54329;BME280;40710;51.120;13.136;2022-08-30T07:41:18;99876.47;;;25.42;47.61
54329;BME280;40710;51.120;13.136;2022-08-30T07:43:43;99869.09;;;26.10;45.77
54329;BME280;40710;51.120;13.136;2022-08-30T07:46:08;99872.09;;;26.40;44.86
54329;BME280;40710;51.120;13.136;2022-08-30T07:48:33;99875.25;;;26.68;44.53
54329;BME280;40710;51.120;13.136;2022-08-30T07:50:58;99866.06;;;27.25;44.13
54329;BME280;40710;51.120;13.136;2022-08-30T07:53:23;99861.28;;;27.67;42.74
54329;BME280;40710;51.120;13.136;2022-08-30T07:55:47;99866.06;;;27.80;42.15
54329;BME280;40710;51.120;13.136;2022-08-30T07:58:11;99868.41;;;28.21;41.09
54329;BME280;40710;51.120;13.136;2022-08-30T08:00:36;99868.63;;;28.34;41.42
54329;BME280;40710;51.120;13.136;2022-08-30T08:03:07;99874.63;;;28.59;40.01
54329;BME280;40710;51.120;13.136;2022-08-30T08:05:40;99875.50;;;28.22;41.81
54329;BME280;40710;51.120;13.136;2022-08-30T08:08:05;99864.81;;;28.28;39.97
54329;BME280;40710;51.120;13.136;2022-08-30T08:10:29;99863.34;;;28.56;40.84
54329;BME280;40710;51.120;13.136;2022-08-30T08:12:54;99858.44;;;29.26;38.33
54329;BME280;40710;51.120;13.136;2022-08-30T08:15:18;99867.00;;;28.93;40.03
54329;BME280;40710;51.120;13.136;2022-08-30T08:17:43;99862.53;;;29.58;39.00
54329;BME280;40710;51.120;13.136;2022-08-30T08:20:07;99860.94;;;30.07;38.59
54329;BME280;40710;51.120;13.136;2022-08-30T08:22:31;99872.84;;;30.12;38.12
54329;BME280;40710;51.120;13.136;2022-08-30T08:24:56;99871.13;;;29.83;37.83
54329;BME280;40710;51.120;13.136;2022-08-30T08:27:20;99871.97;;;29.26;38.87
54329;BME280;40710;51.120;13.136;2022-08-30T08:29:45;99874.44;;;28.91;38.75
54329;BME280;40710;51.120;13.136;2022-08-30T08:32:09;99877.63;;;28.79;40.26
54329;BME280;40710;51.120;13.136;2022-08-30T08:34:34;99874.25;;;28.47;39.87
54329;BME280;40710;51.120;13.136;2022-08-30T08:36:58;99877.56;;;28.35;39.62
54329;BME280;40710;51.120;13.136;2022-08-30T08:39:23;99878.88;;;28.24;39.93
54329;BME280;40710;51.120;13.136;2022-08-30T08:42:04;99880.16;;;28.13;40.44
54329;BME280;40710;51.120;13.136;2022-08-30T08:50:00;99881.66;;;28.16;40.19
54329;BME280;40710;51.120;13.136;2022-08-30T08:52:30;99880.84;;;27.92;40.58
54329;BME280;40710;51.120;13.136;2022-08-30T08:55:20;99876.69;;;28.04;39.53
54329;BME280;40710;51.120;13.136;2022-08-30T08:57:45;99877.94;;;28.17;39.58
54329;BME280;40710;51.120;13.136;2022-08-30T09:00:11;99875.88;;;28.19;39.65
54329;BME280;40710;51.120;13.136;2022-08-30T09:02:54;99879.63;;;28.18;40.29
54329;BME280;40710;51.120;13.136;2022-08-30T09:05:22;99869.09;;;28.38;39.67
54329;BME280;40710;51.120;13.136;2022-08-30T09:07:51;99865.19;;;28.40;38.57
54329;BME280;40710;51.120;13.136;2022-08-30T09:10:19;99873.66;;;28.52;38.52
54329;BME280;40710;51.120;13.136;2022-08-30T09:12:44;99865.00;;;28.42;38.98
54329;BME280;40710;51.120;13.136;2022-08-30T09:15:16;99871.34;;;28.34;39.31
54329;BME280;40710;51.120;13.136;2022-08-30T09:18:07;99876.16;;;28.62;39.22
54329;BME280;40710;51.120;13.136;2022-08-30T09:20:37;99872.31;;;28.56;39.72
54329;BME280;40710;51.120;13.136;2022-08-30T09:23:21;99866.81;;;28.79;39.89
54329;BME280;40710;51.120;13.136;2022-08-30T09:25:52;99861.97;;;28.60;39.20
54329;BME280;40710;51.120;13.136;2022-08-30T09:28:22;99866.88;;;28.41;39.65
54329;BME280;40710;51.120;13.136;2022-08-30T09:34:04;99877.97;;;28.32;40.86
54329;BME280;40710;51.120;13.136;2022-08-30T09:39:02;99864.28;;;28.33;39.76
54329;BME280;40710;51.120;13.136;2022-08-30T09:41:35;99869.19;;;28.44;40.10
54329;BME280;40710;51.120;13.136;2022-08-30T09:44:18;99865.16;;;28.63;40.63
54329;BME280;40710;51.120;13.136;2022-08-30T09:46:52;99858.06;;;28.77;39.44
54329;BME280;40710;51.120;13.136;2022-08-30T09:49:34;99870.28;;;28.58;40.16
54329;BME280;40710;51.120;13.136;2022-08-30T09:52:15;99854.75;;;28.82;39.41
54329;BME280;40710;51.120;13.136;2022-08-30T09:54:52;99856.00;;;28.64;39.61
54329;BME280;40710;51.120;13.136;2022-08-30T09:57:40;99858.59;;;29.17;40.00
54329;BME280;40710;51.120;13.136;2022-08-30T10:00:19;99858.41;;;29.40;38.58
54329;BME280;40710;51.120;13.136;2022-08-30T10:02:55;99860.06;;;29.05;38.15
54329;BME280;40710;51.120;13.136;2022-08-30T10:10:50;99855.88;;;29.60;37.17
54329;BME280;40710;51.120;13.136;2022-08-30T10:16:11;99851.91;;;29.35;37.40
54329;BME280;40710;51.120;13.136;2022-08-30T10:18:46;99852.00;;;29.70;36.24
54329;BME280;40710;51.120;13.136;2022-08-30T10:21:23;99854.81;;;29.18;37.37
54329;BME280;40710;51.120;13.136;2022-08-30T10:24:01;99849.97;;;29.72;36.29
54329;BME280;40710;51.120;13.136;2022-08-30T10:26:28;99849.13;;;29.93;36.51
54329;BME280;40710;51.120;13.136;2022-08-30T10:29:15;99847.38;;;30.07;35.88
54329;BME280;40710;51.120;13.136;2022-08-30T10:31:49;99841.16;;;29.70;35.95
54329;BME280;40710;51.120;13.136;2022-08-30T10:34:35;99833.53;;;29.15;36.00
54329;BME280;40710;51.120;13.136;2022-08-30T10:37:05;99834.75;;;29.49;34.88
54329;BME280;40710;51.120;13.136;2022-08-30T10:39:37;99839.63;;;29.60;35.42
54329;BME280;40710;51.120;13.136;2022-08-30T10:42:07;99834.00;;;29.77;35.00
54329;BME280;40710;51.120;13.136;2022-08-30T10:44:38;99831.06;;;29.78;34.87
54329;BME280;40710;51.120;13.136;2022-08-30T10:50:19;99827.28;;;30.01;34.38
54329;BME280;40710;51.120;13.136;2022-08-30T10:55:33;99817.00;;;29.47;33.38
54329;BME280;40710;51.120;13.136;2022-08-30T10:58:00;99825.69;;;29.20;34.05
54329;BME280;40710;51.120;13.136;2022-08-30T11:06:06;99820.84;;;30.30;33.33
54329;BME280;40710;51.120;13.136;2022-08-30T11:12:00;99812.69;;;30.30;32.91
54329;BME280;40710;51.120;13.136;2022-08-30T11:14:38;99809.78;;;30.67;31.14
54329;BME280;40710;51.120;13.136;2022-08-30T11:17:04;99814.59;;;30.71;30.32
54329;BME280;40710;51.120;13.136;2022-08-30T11:19:37;99805.81;;;31.18;30.33
54329;BME280;40710;51.120;13.136;2022-08-30T11:22:24;99813.22;;;31.57;30.50
54329;BME280;40710;51.120;13.136;2022-08-30T11:25:15;99808.19;;;31.61;29.79
54329;BME280;40710;51.120;13.136;2022-08-30T11:27:56;99808.63;;;31.84;29.63
54329;BME280;40710;51.120;13.136;2022-08-30T11:35:42;99810.34;;;30.97;30.40
54329;BME280;40710;51.120;13.136;2022-08-30T11:48:50;99807.13;;;30.80;30.45
54329;BME280;40710;51.120;13.136;2022-08-30T11:51:27;99795.19;;;31.43;29.92
54329;BME280;40710;51.120;13.136;2022-08-30T11:54:01;99797.13;;;31.69;29.13
54329;BME280;40710;51.120;13.136;2022-08-30T11:56:42;99796.06;;;31.90;29.00
54329;BME280;40710;51.120;13.136;2022-08-30T11:59:23;99807.31;;;31.27;29.73
54329;BME280;40710;51.120;13.136;2022-08-30T12:01:51;99802.34;;;30.89;29.86
54329;BME280;40710;51.120;13.136;2022-08-30T12:09:09;99808.91;;;30.53;32.15
54329;BME280;40710;51.120;13.136;2022-08-30T12:13:59;99807.44;;;30.99;31.64
54329;BME280;40710;51.120;13.136;2022-08-30T12:16:36;99794.53;;;31.14;31.70
54329;BME280;40710;51.120;13.136;2022-08-30T12:19:22;99795.88;;;31.58;31.10
54329;BME280;40710;51.120;13.136;2022-08-30T12:21:57;99798.59;;;31.52;31.58
54329;BME280;40710;51.120;13.136;2022-08-30T12:24:28;99797.06;;;31.16;32.80
54329;BME280;40710;51.120;13.136;2022-08-30T12:26:55;99803.53;;;30.73;33.90
54329;BME280;40710;51.120;13.136;2022-08-30T12:29:26;99799.97;;;30.66;33.52
54329;BME280;40710;51.120;13.136;2022-08-30T12:32:01;99797.09;;;30.74;32.84
54329;BME280;40710;51.120;13.136;2022-08-30T12:34:34;99792.03;;;30.64;32.63
54329;BME280;40710;51.120;13.136;2022-08-30T12:37:06;99804.56;;;30.30;33.44
54329;BME280;40710;51.120;13.136;2022-08-30T12:39:34;99802.81;;;30.16;33.70
54329;BME280;40710;51.120;13.136;2022-08-30T12:44:42;99795.03;;;30.06;33.55
54329;BME280;40710;51.120;13.136;2022-08-30T12:47:10;99790.88;;;29.82;34.11
54329;BME280;40710;51.120;13.136;2022-08-30T12:49:36;99798.13;;;29.53;34.54
54329;BME280;40710;51.120;13.136;2022-08-30T12:54:44;99791.00;;;29.74;34.11
54329;BME280;40710;51.120;13.136;2022-08-30T12:57:09;99787.78;;;29.85;34.22
54329;BME280;40710;51.120;13.136;2022-08-30T12:59:50;99792.31;;;29.56;34.53
54329;BME280;40710;51.120;13.136;2022-08-30T13:02:26;99790.66;;;30.05;34.78
54329;BME280;40710;51.120;13.136;2022-08-30T13:04:52;99786.94;;;30.13;33.69
54329;BME280;40710;51.120;13.136;2022-08-30T13:07:34;99780.78;;;30.32;33.93
54329;BME280;40710;51.120;13.136;2022-08-30T13:10:03;99785.78;;;30.64;34.29
54329;BME280;40710;51.120;13.136;2022-08-30T13:12:29;99782.47;;;30.68;33.85
54329;BME280;40710;51.120;13.136;2022-08-30T13:15:13;99785.31;;;30.95;33.65
54329;BME280;40710;51.120;13.136;2022-08-30T13:17:39;99771.84;;;31.55;33.22
54329;BME280;40710;51.120;13.136;2022-08-30T13:22:41;99768.28;;;31.55;32.09
54329;BME280;40710;51.120;13.136;2022-08-30T13:25:22;99761.78;;;31.36;32.54
54329;BME280;40710;51.120;13.136;2022-08-30T13:27:47;99763.47;;;31.97;31.86
54329;BME280;40710;51.120;13.136;2022-08-30T13:30:13;99754.47;;;31.96;31.66
54329;BME280;40710;51.120;13.136;2022-08-30T13:32:39;99761.81;;;31.89;31.78
54329;BME280;40710;51.120;13.136;2022-08-30T13:35:04;99753.81;;;31.94;31.25
54329;BME280;40710;51.120;13.136;2022-08-30T13:37:30;99749.81;;;32.23;31.15
54329;BME280;40710;51.120;13.136;2022-08-30T13:39:55;99745.88;;;32.71;30.56
54329;BME280;40710;51.120;13.136;2022-08-30T13:42:19;99749.19;;;32.35;31.17
54329;BME280;40710;51.120;13.136;2022-08-30T13:44:44;99750.22;;;32.86;29.49
54329;BME280;40710;51.120;13.136;2022-08-30T13:47:08;99745.94;;;32.58;29.89
54329;BME280;40710;51.120;13.136;2022-08-30T13:49:35;99751.91;;;32.28;30.30
54329;BME280;40710;51.120;13.136;2022-08-30T13:52:00;99754.47;;;31.76;31.64
54329;BME280;40710;51.120;13.136;2022-08-30T13:54:25;99751.56;;;31.71;31.02
54329;BME280;40710;51.120;13.136;2022-08-30T13:56:51;99750.75;;;31.51;31.88